sensor_id;sensor_type;location;lat;lon;timestamp;pressure;altitude;pressure_sealevel;temperature;humidity
42591;BME280;28218;53.342;-6.216;2022-10-26T00:01:07;98419.78;;;14.75;100.00
42591;BME280;28218;53.342;-6.216;2022-10-26T00:03:37;98421.63;;;14.74;100.00
42591;BME280;28218;53.342;-6.216;2022-10-26T00:06:08;98429.31;;;14.76;100.00
42591;BME280;28218;53.342;-6.216;2022-10-26T00:08:37;98424.59;;;14.78;100.00
42591;BME280;28218;53.342;-6.216;2022-10-26T00:11:07;98417.16;;;14.80;100.00
42591;BME280;28218;53.342;-6.216;2022-10-26T00:13:37;98410.56;;;14.82;100.00
42591;BME280;28218;53.342;-6.216;2022-10-26T00:16:11;98420.38;;;14.82;100.00
42591;BME280;28218;53.342;-6.216;2022-10-26T00:18:39;98420.38;;;14.82;100.00
42591;BME280;28218;53.342;-6.216;2022-10-26T00:21:09;98414.03;;;14.83;100.00
42591;BME280;28218;53.342;-6.216;2022-10-26T00:23:38;98404.22;;;14.83;100.00
42591;BME280;28218;53.342;-6.216;2022-10-26T00:26:08;98390.16;;;14.83;100.00
42591;BME280;28218;53.342;-6.216;2022-10-26T00:28:36;98381.66;;;14.81;100.00
42591;BME280;28218;53.342;-6.216;2022-10-26T00:31:06;98384.88;;;14.83;100.00
42591;BME280;28218;53.342;-6.216;2022-10-26T00:33:35;98378.75;;;14.82;100.00
42591;BME280;28218;53.342;-6.216;2022-10-26T00:36:03;98381.66;;;14.81;100.00
42591;BME280;28218;53.342;-6.216;2022-10-26T00:38:31;98380.88;;;14.86;100.00
42591;BME280;28218;53.342;-6.216;2022-10-26T00:40:59;98372.94;;;14.86;100.00
42591;BME280;28218;53.342;-6.216;2022-10-26T00:43:48;98374.53;;;14.87;100.00
42591;BME280;28218;53.342;-6.216;2022-10-26T00:46:19;98370.84;;;14.88;100.00
42591;BME280;28218;53.342;-6.216;2022-10-26T00:48:50;98363.94;;;14.87;100.00
42591;BME280;28218;53.342;-6.216;2022-10-26T00:51:23;98367.91;;;14.84;100.00
42591;BME280;28218;53.342;-6.216;2022-10-26T00:53:52;98370.53;;;14.84;100.00
42591;BME280;28218;53.342;-6.216;2022-10-26T00:56:21;98386.47;;;14.84;100.00
42591;BME280;28218;53.342;-6.216;2022-10-26T00:58:51;98376.16;;;14.88;100.00
42591;BME280;28218;53.342;-6.216;2022-10-26T01:01:19;98382.78;;;14.90;100.00
42591;BME280;28218;53.342;-6.216;2022-10-26T01:03:48;98381.50;;;14.93;100.00
42591;BME280;28218;53.342;-6.216;2022-10-26T01:06:16;98385.44;;;14.90;100.00
42591;BME280;28218;53.342;-6.216;2022-10-26T01:08:46;98383.09;;;14.94;100.00
42591;BME280;28218;53.342;-6.216;2022-10-26T01:11:15;98382.78;;;14.90;100.00
42591;BME280;28218;53.342;-6.216;2022-10-26T01:13:44;98376.16;;;14.88;100.00
42591;BME280;28218;53.342;-6.216;2022-10-26T01:16:34;98382.44;;;14.81;100.00
42591;BME280;28218;53.342;-6.216;2022-10-26T01:19:30;98388.50;;;14.77;100.00
42591;BME280;28218;53.342;-6.216;2022-10-26T01:22:13;98393.53;;;14.73;100.00
42591;BME280;28218;53.342;-6.216;2022-10-26T01:25:02;98403.56;;;14.71;100.00
42591;BME280;28218;53.342;-6.216;2022-10-26T01:27:36;98403.25;;;14.68;100.00
42591;BME280;28218;53.342;-6.216;2022-10-26T01:30:28;98405.38;;;14.66;100.00
42591;BME280;28218;53.342;-6.216;2022-10-26T01:33:26;98400.56;;;14.63;100.00
42591;BME280;28218;53.342;-6.216;2022-10-26T01:36:10;98398.97;;;14.62;100.00
42591;BME280;28218;53.342;-6.216;2022-10-26T01:38:46;98396.59;;;14.60;100.00
42591;BME280;28218;53.342;-6.216;2022-10-26T01:41:19;98399.69;;;14.52;100.00
42591;BME280;28218;53.342;-6.216;2022-10-26T01:43:52;98392.44;;;14.47;100.00
42591;BME280;28218;53.342;-6.216;2022-10-26T01:46:25;98393.50;;;14.46;100.00
42591;BME280;28218;53.342;-6.216;2022-10-26T01:48:54;98387.09;;;14.42;100.00
42591;BME280;28218;53.342;-6.216;2022-10-26T01:51:25;98378.34;;;14.42;100.00
42591;BME280;28218;53.342;-6.216;2022-10-26T01:53:57;98362.66;;;14.35;100.00
42591;BME280;28218;53.342;-6.216;2022-10-26T01:56:27;98362.84;;;14.28;100.00
42591;BME280;28218;53.342;-6.216;2022-10-26T01:59:15;98339.72;;;14.19;100.00
42591;BME280;28218;53.342;-6.216;2022-10-26T02:04:56;98343.16;;;14.19;100.00
42591;BME280;28218;53.342;-6.216;2022-10-26T02:07:33;98336.56;;;14.22;100.00
42591;BME280;28218;53.342;-6.216;2022-10-26T02:10:11;98309.47;;;14.15;100.00
42591;BME280;28218;53.342;-6.216;2022-10-26T02:12:47;98303.94;;;14.16;100.00
42591;BME280;28218;53.342;-6.216;2022-10-26T02:15:22;98297.59;;;14.17;100.00
42591;BME280;28218;53.342;-6.216;2022-10-26T02:17:56;98298.69;;;14.21;100.00
42591;BME280;28218;53.342;-6.216;2022-10-26T02:20:31;98285.19;;;14.23;100.00
42591;BME280;28218;53.342;-6.216;2022-10-26T02:23:03;98283.06;;;14.25;100.00
42591;BME280;28218;53.342;-6.216;2022-10-26T02:25:35;98277.28;;;14.28;100.00
42591;BME280;28218;53.342;-6.216;2022-10-26T02:28:08;98279.44;;;14.31;100.00
42591;BME280;28218;53.342;-6.216;2022-10-26T02:30:38;98279.19;;;14.32;100.00
42591;BME280;28218;53.342;-6.216;2022-10-26T02:33:09;98272.53;;;14.30;100.00
42591;BME280;28218;53.342;-6.216;2022-10-26T02:35:42;98278.88;;;14.29;100.00
42591;BME280;28218;53.342;-6.216;2022-10-26T02:38:16;98269.09;;;14.29;100.00
42591;BME280;28218;53.342;-6.216;2022-10-26T02:40:46;98264.59;;;14.30;100.00
42591;BME280;28218;53.342;-6.216;2022-10-26T02:43:17;98264.09;;;14.33;100.00
42591;BME280;28218;53.342;-6.216;2022-10-26T02:45:52;98267.78;;;14.32;100.00
42591;BME280;28218;53.342;-6.216;2022-10-26T02:48:22;98281.84;;;14.32;100.00
42591;BME280;28218;53.342;-6.216;2022-10-26T02:50:57;98271.78;;;14.35;100.00
42591;BME280;28218;53.342;-6.216;2022-10-26T02:53:30;98277.91;;;14.35;100.00
42591;BME280;28218;53.342;-6.216;2022-10-26T02:56:03;98274.72;;;14.38;100.00
42591;BME280;28218;53.342;-6.216;2022-10-26T02:58:36;98273.97;;;14.43;100.00
42591;BME280;28218;53.342;-6.216;2022-10-26T03:01:07;98265.75;;;14.44;100.00
42591;BME280;28218;53.342;-6.216;2022-10-26T03:03:36;98278.50;;;14.47;100.00
42591;BME280;28218;53.342;-6.216;2022-10-26T03:06:06;98276.69;;;14.48;100.00
42591;BME280;28218;53.342;-6.216;2022-10-26T03:08:34;98274.84;;;14.48;100.00
42591;BME280;28218;53.342;-6.216;2022-10-26T03:11:02;98257.91;;;14.49;100.00
42591;BME280;28218;53.342;-6.216;2022-10-26T03:13:30;98249.97;;;14.49;100.00
42591;BME280;28218;53.342;-6.216;2022-10-26T03:15:58;98247.78;;;14.46;100.00
42591;BME280;28218;53.342;-6.216;2022-10-26T03:18:27;98253.06;;;14.46;100.00
42591;BME280;28218;53.342;-6.216;2022-10-26T03:20:55;98255.25;;;14.49;100.00
42591;BME280;28218;53.342;-6.216;2022-10-26T03:23:24;98252.34;;;14.51;100.00
42591;BME280;28218;53.342;-6.216;2022-10-26T03:25:55;98253.44;;;14.55;100.00
42591;BME280;28218;53.342;-6.216;2022-10-26T03:28:23;98229.06;;;14.58;100.00
42591;BME280;28218;53.342;-6.216;2022-10-26T03:30:51;98208.41;;;14.55;100.00
42591;BME280;28218;53.342;-6.216;2022-10-26T03:33:20;98216.56;;;14.53;100.00
42591;BME280;28218;53.342;-6.216;2022-10-26T03:35:54;98217.63;;;14.52;100.00
42591;BME280;28218;53.342;-6.216;2022-10-26T03:38:24;98215.25;;;14.51;100.00
42591;BME280;28218;53.342;-6.216;2022-10-26T03:40:52;98186.38;;;14.49;100.00
42591;BME280;28218;53.342;-6.216;2022-10-26T03:43:20;98156.16;;;14.50;100.00
42591;BME280;28218;53.342;-6.216;2022-10-26T03:45:48;98148.75;;;14.52;100.00
42591;BME280;28218;53.342;-6.216;2022-10-26T03:48:17;98155.94;;;14.57;100.00
42591;BME280;28218;53.342;-6.216;2022-10-26T03:50:45;98173.66;;;14.51;100.00
42591;BME280;28218;53.342;-6.216;2022-10-26T03:53:13;98187.41;;;14.48;100.00
42591;BME280;28218;53.342;-6.216;2022-10-26T03:55:44;98176.25;;;14.46;100.00
42591;BME280;28218;53.342;-6.216;2022-10-26T03:58:12;98175.69;;;14.44;100.00
42591;BME280;28218;53.342;-6.216;2022-10-26T04:00:41;98185.53;;;14.49;100.00
42591;BME280;28218;53.342;-6.216;2022-10-26T04:03:09;98180.97;;;14.44;100.00
42591;BME280;28218;53.342;-6.216;2022-10-26T04:05:37;98190.28;;;14.47;100.00
42591;BME280;28218;53.342;-6.216;2022-10-26T04:08:05;98197.19;;;14.48;100.00
42591;BME280;28218;53.342;-6.216;2022-10-26T04:10:34;98196.38;;;14.47;100.00
42591;BME280;28218;53.342;-6.216;2022-10-26T04:13:03;98212.53;;;14.46;100.00
42591;BME280;28218;53.342;-6.216;2022-10-26T04:15:31;98201.16;;;14.45;100.00
42591;BME280;28218;53.342;-6.216;2022-10-26T04:18:01;98210.09;;;14.39;100.00
42591;BME280;28218;53.342;-6.216;2022-10-26T04:20:31;98203.50;;;14.42;100.00
42591;BME280;28218;53.342;-6.216;2022-10-26T04:23:01;98210.34;;;14.38;100.00
42591;BME280;28218;53.342;-6.216;2022-10-26T04:25:31;98198.44;;;14.35;100.00
42591;BME280;28218;53.342;-6.216;2022-10-26T04:28:00;98173.22;;;14.32;100.00
42591;BME280;28218;53.342;-6.216;2022-10-26T04:30:30;98135.34;;;14.32;100.00
42591;BME280;28218;53.342;-6.216;2022-10-26T04:32:58;98115.97;;;14.26;100.00
42591;BME280;28218;53.342;-6.216;2022-10-26T04:35:27;98091.34;;;14.26;100.00
42591;BME280;28218;53.342;-6.216;2022-10-26T04:37:58;98058.19;;;14.18;100.00
42591;BME280;28218;53.342;-6.216;2022-10-26T04:40:26;98068.53;;;14.20;100.00
42591;BME280;28218;53.342;-6.216;2022-10-26T04:42:55;98099.75;;;14.13;100.00
42591;BME280;28218;53.342;-6.216;2022-10-26T04:45:23;98064.78;;;14.16;100.00
42591;BME280;28218;53.342;-6.216;2022-10-26T04:48:03;98114.56;;;14.14;100.00
42591;BME280;28218;53.342;-6.216;2022-10-26T04:50:31;98133.91;;;14.14;100.00
42591;BME280;28218;53.342;-6.216;2022-10-26T04:52:59;98137.34;;;14.15;100.00
42591;BME280;28218;53.342;-6.216;2022-10-26T04:55:28;98136.56;;;14.14;100.00
42591;BME280;28218;53.342;-6.216;2022-10-26T04:57:57;98144.72;;;14.07;100.00
42591;BME280;28218;53.342;-6.216;2022-10-26T05:00:27;98151.00;;;14.01;100.00
42591;BME280;28218;53.342;-6.216;2022-10-26T05:03:02;98159.22;;;14.00;100.00
42591;BME280;28218;53.342;-6.216;2022-10-26T05:05:32;98170.59;;;14.00;100.00
42591;BME280;28218;53.342;-6.216;2022-10-26T05:08:00;98169.00;;;13.99;100.00
42591;BME280;28218;53.342;-6.216;2022-10-26T05:10:28;98188.34;;;14.00;100.00
42591;BME280;28218;53.342;-6.216;2022-10-26T05:12:58;98184.88;;;13.99;100.00
42591;BME280;28218;53.342;-6.216;2022-10-26T05:15:27;98201.84;;;13.98;100.00
42591;BME280;28218;53.342;-6.216;2022-10-26T05:17:57;98220.06;;;13.95;100.00
42591;BME280;28218;53.342;-6.216;2022-10-26T05:20:28;98227.19;;;13.94;100.00
42591;BME280;28218;53.342;-6.216;2022-10-26T05:22:58;98239.34;;;13.90;100.00
42591;BME280;28218;53.342;-6.216;2022-10-26T05:25:29;98238.53;;;13.90;100.00
42591;BME280;28218;53.342;-6.216;2022-10-26T05:27:57;98239.81;;;13.87;100.00
42591;BME280;28218;53.342;-6.216;2022-10-26T05:30:26;98245.88;;;13.82;100.00
42591;BME280;28218;53.342;-6.216;2022-10-26T05:32:55;98245.59;;;13.79;100.00
42591;BME280;28218;53.342;-6.216;2022-10-26T05:35:24;98251.63;;;13.74;100.00
42591;BME280;28218;53.342;-6.216;2022-10-26T05:37:54;98249.47;;;13.71;100.00
42591;BME280;28218;53.342;-6.216;2022-10-26T05:40:22;98265.03;;;13.68;100.00
42591;BME280;28218;53.342;-6.216;2022-10-26T05:42:50;98262.91;;;13.65;100.00
42591;BME280;28218;53.342;-6.216;2022-10-26T05:45:19;98271.06;;;13.63;100.00
42591;BME280;28218;53.342;-6.216;2022-10-26T05:47:47;98273.41;;;13.60;100.00
42591;BME280;28218;53.342;-6.216;2022-10-26T05:50:16;98272.38;;;13.61;100.00
42591;BME280;28218;53.342;-6.216;2022-10-26T05:52:45;98288.25;;;13.61;100.00
42591;BME280;28218;53.342;-6.216;2022-10-26T05:55:17;98304.13;;;13.61;100.00
42591;BME280;28218;53.342;-6.216;2022-10-26T05:57:46;98323.44;;;13.61;100.00
42591;BME280;28218;53.342;-6.216;2022-10-26T06:00:17;98327.38;;;13.59;100.00
42591;BME280;28218;53.342;-6.216;2022-10-26T06:03:07;98341.66;;;13.58;100.00
42591;BME280;28218;53.342;-6.216;2022-10-26T06:05:43;98358.00;;;13.54;100.00
42591;BME280;28218;53.342;-6.216;2022-10-26T06:08:13;98375.97;;;13.52;100.00
42591;BME280;28218;53.342;-6.216;2022-10-26T06:10:43;98376.78;;;13.53;100.00
42591;BME280;28218;53.342;-6.216;2022-10-26T06:13:11;98385.50;;;13.53;100.00
42591;BME280;28218;53.342;-6.216;2022-10-26T06:15:47;98390.81;;;13.53;100.00
42591;BME280;28218;53.342;-6.216;2022-10-26T06:18:27;98406.34;;;13.50;100.00
42591;BME280;28218;53.342;-6.216;2022-10-26T06:21:12;98416.41;;;13.48;100.00
42591;BME280;28218;53.342;-6.216;2022-10-26T06:23:49;98439.97;;;13.49;100.00
42591;BME280;28218;53.342;-6.216;2022-10-26T06:26:31;98448.94;;;13.48;100.00
42591;BME280;28218;53.342;-6.216;2022-10-26T06:29:11;98442.66;;;13.54;100.00
42591;BME280;28218;53.342;-6.216;2022-10-26T06:31:45;98438.50;;;13.59;100.00
42591;BME280;28218;53.342;-6.216;2022-10-26T06:34:20;98457.81;;;13.59;100.00
42591;BME280;28218;53.342;-6.216;2022-10-26T06:36:50;98462.88;;;13.61;100.00
42591;BME280;28218;53.342;-6.216;2022-10-26T06:39:20;98461.03;;;13.61;100.00
42591;BME280;28218;53.342;-6.216;2022-10-26T06:41:50;98467.69;;;13.64;100.00
42591;BME280;28218;53.342;-6.216;2022-10-26T06:44:21;98478.25;;;13.64;100.00
42591;BME280;28218;53.342;-6.216;2022-10-26T06:46:58;98500.22;;;13.64;100.00
42591;BME280;28218;53.342;-6.216;2022-10-26T06:49:32;98509.47;;;13.62;100.00
42591;BME280;28218;53.342;-6.216;2022-10-26T06:52:07;98520.59;;;13.64;100.00
42591;BME280;28218;53.342;-6.216;2022-10-26T06:54:46;98532.31;;;13.68;100.00
42591;BME280;28218;53.342;-6.216;2022-10-26T06:57:18;98566.25;;;13.71;100.00
42591;BME280;28218;53.342;-6.216;2022-10-26T06:59:49;98571.28;;;13.72;100.00
42591;BME280;28218;53.342;-6.216;2022-10-26T07:02:18;98584.78;;;13.71;100.00
42591;BME280;28218;53.342;-6.216;2022-10-26T07:04:47;98581.66;;;13.74;100.00
42591;BME280;28218;53.342;-6.216;2022-10-26T07:07:17;98595.44;;;13.76;100.00
42591;BME280;28218;53.342;-6.216;2022-10-26T07:09:47;98601.84;;;13.80;100.00
42591;BME280;28218;53.342;-6.216;2022-10-26T07:12:16;98602.09;;;13.78;100.00
42591;BME280;28218;53.342;-6.216;2022-10-26T07:14:45;98605.78;;;13.77;100.00
42591;BME280;28218;53.342;-6.216;2022-10-26T07:17:13;98616.06;;;13.74;100.00
42591;BME280;28218;53.342;-6.216;2022-10-26T07:19:43;98625.03;;;13.73;100.00
42591;BME280;28218;53.342;-6.216;2022-10-26T07:22:11;98640.44;;;13.76;100.00
42591;BME280;28218;53.342;-6.216;2022-10-26T07:24:39;98649.75;;;13.78;100.00
42591;BME280;28218;53.342;-6.216;2022-10-26T07:27:07;98659.59;;;13.83;100.00
42591;BME280;28218;53.342;-6.216;2022-10-26T07:29:37;98675.00;;;13.86;100.00
42591;BME280;28218;53.342;-6.216;2022-10-26T07:32:05;98667.53;;;13.83;100.00
42591;BME280;28218;53.342;-6.216;2022-10-26T07:34:33;98689.53;;;13.84;100.00
42591;BME280;28218;53.342;-6.216;2022-10-26T07:37:01;98681.81;;;13.82;100.00
42591;BME280;28218;53.342;-6.216;2022-10-26T07:39:30;98705.09;;;13.80;100.00
42591;BME280;28218;53.342;-6.216;2022-10-26T07:41:58;98714.53;;;13.76;100.00
42591;BME280;28218;53.342;-6.216;2022-10-26T07:44:26;98713.75;;;13.75;100.00
42591;BME280;28218;53.342;-6.216;2022-10-26T07:46:56;98728.25;;;13.73;100.00
42591;BME280;28218;53.342;-6.216;2022-10-26T07:49:24;98749.41;;;13.73;100.00
42591;BME280;28218;53.342;-6.216;2022-10-26T07:51:53;98756.56;;;13.72;100.00
42591;BME280;28218;53.342;-6.216;2022-10-26T07:54:22;98769.31;;;13.75;100.00
42591;BME280;28218;53.342;-6.216;2022-10-26T07:56:50;98782.09;;;13.78;100.00
42591;BME280;28218;53.342;-6.216;2022-10-26T07:59:18;98778.72;;;13.83;100.00
42591;BME280;28218;53.342;-6.216;2022-10-26T08:01:46;98807.97;;;13.88;100.00
42591;BME280;28218;53.342;-6.216;2022-10-26T08:04:16;98804.59;;;13.93;100.00
42591;BME280;28218;53.342;-6.216;2022-10-26T08:06:44;98803.78;;;13.92;100.00
42591;BME280;28218;53.342;-6.216;2022-10-26T08:09:12;98811.50;;;13.94;100.00
42591;BME280;28218;53.342;-6.216;2022-10-26T08:11:41;98815.75;;;13.95;100.00
42591;BME280;28218;53.342;-6.216;2022-10-26T08:14:09;98829.78;;;13.95;100.00
42591;BME280;28218;53.342;-6.216;2022-10-26T08:16:37;98842.47;;;13.93;100.00
42591;BME280;28218;53.342;-6.216;2022-10-26T08:19:06;98871.00;;;13.91;100.00
42591;BME280;28218;53.342;-6.216;2022-10-26T08:21:36;98893.22;;;13.90;100.00
42591;BME280;28218;53.342;-6.216;2022-10-26T08:24:06;98891.16;;;13.92;100.00
42591;BME280;28218;53.342;-6.216;2022-10-26T08:26:35;98907.63;;;13.94;100.00
42591;BME280;28218;53.342;-6.216;2022-10-26T08:29:03;98913.25;;;13.98;100.00
42591;BME280;28218;53.342;-6.216;2022-10-26T08:31:31;98916.22;;;14.01;100.00
42591;BME280;28218;53.342;-6.216;2022-10-26T08:33:59;98918.88;;;14.01;100.00
42591;BME280;28218;53.342;-6.216;2022-10-26T08:36:29;98923.34;;;14.01;100.00
42591;BME280;28218;53.342;-6.216;2022-10-26T08:38:59;98930.16;;;14.09;100.00
42591;BME280;28218;53.342;-6.216;2022-10-26T08:41:34;98931.19;;;14.07;100.00
42591;BME280;28218;53.342;-6.216;2022-10-26T08:44:19;98950.53;;;13.96;100.00
42591;BME280;28218;53.342;-6.216;2022-10-26T08:46:51;98968.97;;;14.03;100.00
42591;BME280;28218;53.342;-6.216;2022-10-26T08:49:24;98982.53;;;14.06;100.00
42591;BME280;28218;53.342;-6.216;2022-10-26T08:51:56;98997.41;;;14.07;100.00
42591;BME280;28218;53.342;-6.216;2022-10-26T08:54:34;99006.03;;;14.03;100.00
42591;BME280;28218;53.342;-6.216;2022-10-26T08:57:11;99018.47;;;14.02;100.00
42591;BME280;28218;53.342;-6.216;2022-10-26T08:59:46;99023.53;;;14.04;100.00
42591;BME280;28218;53.342;-6.216;2022-10-26T09:02:16;99031.03;;;14.07;100.00
42591;BME280;28218;53.342;-6.216;2022-10-26T09:04:45;99029.84;;;14.15;100.00
42591;BME280;28218;53.342;-6.216;2022-10-26T09:07:23;99044.94;;;14.14;100.00
42591;BME280;28218;53.342;-6.216;2022-10-26T09:10:00;99064.88;;;14.17;100.00
42591;BME280;28218;53.342;-6.216;2022-10-26T09:12:40;99065.19;;;14.20;100.00
42591;BME280;28218;53.342;-6.216;2022-10-26T09:15:17;99084.78;;;14.19;100.00
42591;BME280;28218;53.342;-6.216;2022-10-26T09:17:56;99084.91;;;14.13;100.00
42591;BME280;28218;53.342;-6.216;2022-10-26T09:20:42;99091.69;;;14.20;100.00
42591;BME280;28218;53.342;-6.216;2022-10-26T09:23:25;99101.59;;;14.25;100.00
42591;BME280;28218;53.342;-6.216;2022-10-26T09:25:59;99111.84;;;14.33;100.00
42591;BME280;28218;53.342;-6.216;2022-10-26T09:28:30;99115.78;;;14.30;100.00
42591;BME280;28218;53.342;-6.216;2022-10-26T09:31:02;99118.75;;;14.34;100.00
42591;BME280;28218;53.342;-6.216;2022-10-26T09:33:34;99123.25;;;14.33;100.00
42591;BME280;28218;53.342;-6.216;2022-10-26T09:36:09;99139.03;;;14.40;100.00
42591;BME280;28218;53.342;-6.216;2022-10-26T09:38:44;99148.59;;;14.41;100.00
42591;BME280;28218;53.342;-6.216;2022-10-26T09:41:21;99152.03;;;14.42;100.00
42591;BME280;28218;53.342;-6.216;2022-10-26T09:44:03;99165.78;;;14.50;100.00
42591;BME280;28218;53.342;-6.216;2022-10-26T09:46:36;99166.69;;;14.56;100.00
42591;BME280;28218;53.342;-6.216;2022-10-26T09:49:12;99182.38;;;14.57;100.00
42591;BME280;28218;53.342;-6.216;2022-10-26T09:51:43;99183.28;;;14.63;100.00
42591;BME280;28218;53.342;-6.216;2022-10-26T09:54:14;99198.50;;;14.68;100.00
42591;BME280;28218;53.342;-6.216;2022-10-26T09:56:47;99200.44;;;14.72;100.00
42591;BME280;28218;53.342;-6.216;2022-10-26T09:59:19;99212.56;;;14.80;100.00
42591;BME280;28218;53.342;-6.216;2022-10-26T10:01:48;99217.25;;;14.90;100.00
42591;BME280;28218;53.342;-6.216;2022-10-26T10:04:18;99228.56;;;14.97;100.00
42591;BME280;28218;53.342;-6.216;2022-10-26T10:06:50;99245.97;;;15.04;100.00
42591;BME280;28218;53.342;-6.216;2022-10-26T10:09:22;99241.00;;;15.08;100.00
42591;BME280;28218;53.342;-6.216;2022-10-26T10:11:54;99243.75;;;15.13;100.00
42591;BME280;28218;53.342;-6.216;2022-10-26T10:14:26;99252.06;;;15.17;100.00
42591;BME280;28218;53.342;-6.216;2022-10-26T10:16:56;99272.00;;;15.19;100.00
42591;BME280;28218;53.342;-6.216;2022-10-26T10:19:27;99268.31;;;15.20;100.00
42591;BME280;28218;53.342;-6.216;2022-10-26T10:21:57;99281.22;;;15.28;100.00
42591;BME280;28218;53.342;-6.216;2022-10-26T10:24:28;99292.75;;;15.34;100.00
42591;BME280;28218;53.342;-6.216;2022-10-26T10:27:15;99290.31;;;15.44;100.00
42591;BME280;28218;53.342;-6.216;2022-10-26T10:29:46;99293.06;;;15.49;100.00
42591;BME280;28218;53.342;-6.216;2022-10-26T10:32:16;99313.13;;;15.57;100.00
42591;BME280;28218;53.342;-6.216;2022-10-26T10:34:46;99329.06;;;15.69;100.00
42591;BME280;28218;53.342;-6.216;2022-10-26T10:37:22;99338.53;;;15.76;100.00
42591;BME280;28218;53.342;-6.216;2022-10-26T10:39:56;99346.34;;;15.83;100.00
42591;BME280;28218;53.342;-6.216;2022-10-26T10:42:29;99353.50;;;15.82;100.00
42591;BME280;28218;53.342;-6.216;2022-10-26T10:44:58;99342.50;;;15.91;100.00
42591;BME280;28218;53.342;-6.216;2022-10-26T10:47:29;99368.94;;;15.97;100.00
42591;BME280;28218;53.342;-6.216;2022-10-26T10:50:00;99381.59;;;16.07;100.00
42591;BME280;28218;53.342;-6.216;2022-10-26T10:52:30;99390.81;;;16.16;100.00
42591;BME280;28218;53.342;-6.216;2022-10-26T10:55:09;99418.38;;;16.27;100.00
42591;BME280;28218;53.342;-6.216;2022-10-26T10:57:54;99415.91;;;16.37;100.00
42591;BME280;28218;53.342;-6.216;2022-10-26T11:00:30;99411.81;;;16.46;100.00
42591;BME280;28218;53.342;-6.216;2022-10-26T11:03:14;99439.66;;;16.55;100.00
42591;BME280;28218;53.342;-6.216;2022-10-26T11:06:00;99457.88;;;16.64;100.00
42591;BME280;28218;53.342;-6.216;2022-10-26T11:08:35;99470.22;;;16.70;100.00
42591;BME280;28218;53.342;-6.216;2022-10-26T11:11:09;99472.66;;;16.71;100.00
42591;BME280;28218;53.342;-6.216;2022-10-26T11:13:47;99485.75;;;16.73;100.00
42591;BME280;28218;53.342;-6.216;2022-10-26T11:16:20;99481.09;;;16.80;100.00
42591;BME280;28218;53.342;-6.216;2022-10-26T11:18:55;99490.63;;;16.93;100.00
42591;BME280;28218;53.342;-6.216;2022-10-26T11:21:27;99495.00;;;16.99;100.00
42591;BME280;28218;53.342;-6.216;2022-10-26T11:24:03;99510.34;;;17.08;100.00
42591;BME280;28218;53.342;-6.216;2022-10-26T11:26:41;99514.78;;;17.20;100.00
42591;BME280;28218;53.342;-6.216;2022-10-26T11:29:21;99526.38;;;17.30;100.00
42591;BME280;28218;53.342;-6.216;2022-10-26T11:31:53;99530.84;;;17.42;100.00
42591;BME280;28218;53.342;-6.216;2022-10-26T11:34:28;99540.19;;;17.44;100.00
42591;BME280;28218;53.342;-6.216;2022-10-26T11:37:07;99539.47;;;17.49;100.00
42591;BME280;28218;53.342;-6.216;2022-10-26T11:39:43;99559.97;;;17.48;100.00
42591;BME280;28218;53.342;-6.216;2022-10-26T11:42:22;99557.31;;;17.48;100.00
42591;BME280;28218;53.342;-6.216;2022-10-26T11:44:58;99586.44;;;17.38;100.00
42591;BME280;28218;53.342;-6.216;2022-10-26T11:47:36;99613.31;;;17.36;100.00
42591;BME280;28218;53.342;-6.216;2022-10-26T11:50:14;99622.47;;;17.29;100.00
42591;BME280;28218;53.342;-6.216;2022-10-26T11:52:46;99638.91;;;17.26;100.00
42591;BME280;28218;53.342;-6.216;2022-10-26T11:55:17;99636.78;;;17.11;100.00
42591;BME280;28218;53.342;-6.216;2022-10-26T11:57:48;99648.22;;;17.11;100.00
42591;BME280;28218;53.342;-6.216;2022-10-26T12:00:21;99636.78;;;17.11;100.00
42591;BME280;28218;53.342;-6.216;2022-10-26T12:02:52;99637.13;;;17.15;100.00
42591;BME280;28218;53.342;-6.216;2022-10-26T12:05:31;99637.13;;;17.15;100.00
42591;BME280;28218;53.342;-6.216;2022-10-26T12:08:04;99648.53;;;17.27;100.00
42591;BME280;28218;53.342;-6.216;2022-10-26T12:10:34;99644.94;;;17.33;100.00
42591;BME280;28218;53.342;-6.216;2022-10-26T12:13:18;99640.16;;;17.35;100.00
42591;BME280;28218;53.342;-6.216;2022-10-26T12:15:56;99641.06;;;17.41;100.00
42591;BME280;28218;53.342;-6.216;2022-10-26T12:18:36;99641.25;;;17.51;100.00
42591;BME280;28218;53.342;-6.216;2022-10-26T12:21:25;99642.53;;;17.48;100.00
42591;BME280;28218;53.342;-6.216;2022-10-26T12:23:57;99664.50;;;17.55;100.00
42591;BME280;28218;53.342;-6.216;2022-10-26T12:26:49;99663.44;;;17.56;100.00
42591;BME280;28218;53.342;-6.216;2022-10-26T12:29:29;99670.47;;;17.62;100.00
42591;BME280;28218;53.342;-6.216;2022-10-26T12:31:59;99662.81;;;17.66;100.00
42591;BME280;28218;53.342;-6.216;2022-10-26T12:35:02;99669.50;;;17.69;100.00
42591;BME280;28218;53.342;-6.216;2022-10-26T12:37:34;99685.63;;;17.74;100.00
42591;BME280;28218;53.342;-6.216;2022-10-26T12:40:38;99684.94;;;17.67;100.00
42591;BME280;28218;53.342;-6.216;2022-10-26T12:43:32;99706.72;;;17.63;100.00
42591;BME280;28218;53.342;-6.216;2022-10-26T12:52:43;99729.63;;;17.76;100.00
42591;BME280;28218;53.342;-6.216;2022-10-26T12:58:32;99749.19;;;17.82;100.00
42591;BME280;28218;53.342;-6.216;2022-10-26T13:01:28;99758.56;;;17.84;100.00
42591;BME280;28218;53.342;-6.216;2022-10-26T13:04:07;99765.25;;;17.87;100.00
42591;BME280;28218;53.342;-6.216;2022-10-26T13:07:06;99766.97;;;17.93;100.00
42591;BME280;28218;53.342;-6.216;2022-10-26T13:09:43;99771.72;;;17.91;100.00
42591;BME280;28218;53.342;-6.216;2022-10-26T13:12:12;99778.66;;;17.92;100.00
42591;BME280;28218;53.342;-6.216;2022-10-26T13:14:53;99798.88;;;17.88;100.00
42591;BME280;28218;53.342;-6.216;2022-10-26T13:17:25;99803.16;;;17.89;100.00
42591;BME280;28218;53.342;-6.216;2022-10-26T13:19:55;99813.72;;;17.84;100.00
42591;BME280;28218;53.342;-6.216;2022-10-26T13:22:24;99817.91;;;17.80;100.00